sensor_id;sensor_type;location;lat;lon;timestamp;pressure;altitude;pressure_sealevel;temperature;humidity
49835;BME280;35729;52.090;13.162;2023-06-22T00:00:39;101252.78;;;21.61;67.46
49835;BME280;35729;52.090;13.162;2023-06-22T00:03:07;101262.59;;;21.61;67.69
49835;BME280;35729;52.090;13.162;2023-06-22T00:05:36;101269.84;;;21.59;67.40
49835;BME280;35729;52.090;13.162;2023-06-22T00:08:05;101276.28;;;21.55;67.89
49835;BME280;35729;52.090;13.162;2023-06-22T00:10:33;101280.84;;;21.53;67.95
49835;BME280;35729;52.090;13.162;2023-06-22T00:13:02;101282.00;;;21.48;67.84
49835;BME280;35729;52.090;13.162;2023-06-22T00:15:33;101282.16;;;21.45;67.96
49835;BME280;35729;52.090;13.162;2023-06-22T00:18:02;101286.06;;;21.40;68.08
49835;BME280;35729;52.090;13.162;2023-06-22T00:20:30;101287.00;;;21.39;67.90
49835;BME280;35729;52.090;13.162;2023-06-22T00:23:03;101297.84;;;21.36;67.82
49835;BME280;35729;52.090;13.162;2023-06-22T00:25:33;101295.38;;;21.32;67.97
49835;BME280;35729;52.090;13.162;2023-06-22T00:28:02;101294.69;;;21.29;68.39
49835;BME280;35729;52.090;13.162;2023-06-22T00:30:33;101286.94;;;21.24;68.88
49835;BME280;35729;52.090;13.162;2023-06-22T00:33:02;101285.41;;;21.20;68.78
49835;BME280;35729;52.090;13.162;2023-06-22T00:35:33;101284.72;;;21.16;68.93
49835;BME280;35729;52.090;13.162;2023-06-22T00:38:02;101289.41;;;21.13;69.46
49835;BME280;35729;52.090;13.162;2023-06-22T00:40:31;101295.84;;;21.09;69.36
49835;BME280;35729;52.090;13.162;2023-06-22T00:43:00;101295.34;;;21.02;69.06
49835;BME280;35729;52.090;13.162;2023-06-22T00:45:28;101289.41;;;20.97;69.37
49835;BME280;35729;52.090;13.162;2023-06-22T00:48:00;101295.88;;;20.93;69.44
49835;BME280;35729;52.090;13.162;2023-06-22T00:50:32;101301.38;;;20.90;69.74
49835;BME280;35729;52.090;13.162;2023-06-22T00:53:03;101307.63;;;20.89;69.74
49835;BME280;35729;52.090;13.162;2023-06-22T00:55:34;101306.94;;;20.85;69.58
49835;BME280;35729;52.090;13.162;2023-06-22T00:58:06;101298.19;;;20.83;69.66
49835;BME280;35729;52.090;13.162;2023-06-22T01:00:36;101299.03;;;20.83;69.94
49835;BME280;35729;52.090;13.162;2023-06-22T01:03:13;101291.81;;;20.86;69.63
49835;BME280;35729;52.090;13.162;2023-06-22T01:05:42;101290.78;;;20.88;69.79
49835;BME280;35729;52.090;13.162;2023-06-22T01:08:22;101294.25;;;20.90;70.02
49835;BME280;35729;52.090;13.162;2023-06-22T01:10:55;101281.66;;;20.92;69.50
49835;BME280;35729;52.090;13.162;2023-06-22T01:13:29;101282.34;;;20.96;69.61
49835;BME280;35729;52.090;13.162;2023-06-22T01:16:03;101289.31;;;20.98;69.28
49835;BME280;35729;52.090;13.162;2023-06-22T01:18:36;101292.75;;;21.01;69.39
49835;BME280;35729;52.090;13.162;2023-06-22T01:21:12;101287.34;;;21.02;69.03
49835;BME280;35729;52.090;13.162;2023-06-22T01:23:51;101300.56;;;21.04;69.54
49835;BME280;35729;52.090;13.162;2023-06-22T01:26:30;101296.13;;;21.04;69.26
49835;BME280;35729;52.090;13.162;2023-06-22T01:29:05;101297.91;;;21.04;69.41
49835;BME280;35729;52.090;13.162;2023-06-22T01:31:38;101294.31;;;21.05;69.43
49835;BME280;35729;52.090;13.162;2023-06-22T01:34:08;101304.97;;;21.05;69.23
49835;BME280;35729;52.090;13.162;2023-06-22T01:36:39;101302.41;;;21.03;68.92
49835;BME280;35729;52.090;13.162;2023-06-22T01:39:08;101305.91;;;21.04;69.10
49835;BME280;35729;52.090;13.162;2023-06-22T01:41:38;101303.25;;;21.04;69.11
49835;BME280;35729;52.090;13.162;2023-06-22T01:44:10;101304.28;;;21.01;68.99
49835;BME280;35729;52.090;13.162;2023-06-22T01:46:40;101300.78;;;21.01;69.02
49835;BME280;35729;52.090;13.162;2023-06-22T01:49:08;101299.03;;;20.99;69.53
49835;BME280;35729;52.090;13.162;2023-06-22T01:51:37;101306.16;;;20.99;69.52
49835;BME280;35729;52.090;13.162;2023-06-22T01:54:06;101313.31;;;20.98;69.31
49835;BME280;35729;52.090;13.162;2023-06-22T01:56:35;101310.75;;;20.97;69.72
49835;BME280;35729;52.090;13.162;2023-06-22T01:59:07;101319.59;;;20.97;69.34
49835;BME280;35729;52.090;13.162;2023-06-22T02:01:43;101316.94;;;20.97;69.78
49835;BME280;35729;52.090;13.162;2023-06-22T02:04:15;101324.94;;;20.97;69.66
49835;BME280;35729;52.090;13.162;2023-06-22T02:06:47;101325.03;;;20.96;69.61
49835;BME280;35729;52.090;13.162;2023-06-22T02:09:20;101323.28;;;20.95;69.80
49835;BME280;35729;52.090;13.162;2023-06-22T02:11:52;101326.06;;;20.93;69.83
49835;BME280;35729;52.090;13.162;2023-06-22T02:14:24;101334.91;;;20.94;69.76
49835;BME280;35729;52.090;13.162;2023-06-22T02:16:56;101333.13;;;20.94;69.54
49835;BME280;35729;52.090;13.162;2023-06-22T02:19:26;101334.91;;;20.94;69.57
49835;BME280;35729;52.090;13.162;2023-06-22T02:21:58;101335.78;;;20.94;69.26
49835;BME280;35729;52.090;13.162;2023-06-22T02:24:26;101335.78;;;20.94;69.32
49835;BME280;35729;52.090;13.162;2023-06-22T02:26:57;101329.66;;;20.92;69.69
49835;BME280;35729;52.090;13.162;2023-06-22T02:29:32;101330.53;;;20.93;69.59
49835;BME280;35729;52.090;13.162;2023-06-22T02:32:04;101335.94;;;20.91;69.35
49835;BME280;35729;52.090;13.162;2023-06-22T02:34:32;101334.25;;;20.90;69.48
49835;BME280;35729;52.090;13.162;2023-06-22T02:37:02;101330.78;;;20.88;69.55
49835;BME280;35729;52.090;13.162;2023-06-22T02:39:31;101330.78;;;20.88;69.65
49835;BME280;35729;52.090;13.162;2023-06-22T02:41:59;101332.75;;;20.85;69.43
49835;BME280;35729;52.090;13.162;2023-06-22T02:44:28;101331.03;;;20.83;69.37
49835;BME280;35729;52.090;13.162;2023-06-22T02:46:56;101328.38;;;20.83;69.64
49835;BME280;35729;52.090;13.162;2023-06-22T02:49:27;101331.97;;;20.82;69.85
49835;BME280;35729;52.090;13.162;2023-06-22T02:51:57;101334.75;;;20.81;69.85
49835;BME280;35729;52.090;13.162;2023-06-22T02:54:25;101326.91;;;20.78;69.68
49835;BME280;35729;52.090;13.162;2023-06-22T02:56:54;101324.41;;;20.75;69.57
49835;BME280;35729;52.090;13.162;2023-06-22T02:59:22;101315.56;;;20.74;69.90
49835;BME280;35729;52.090;13.162;2023-06-22T03:01:51;101315.66;;;20.73;69.71
49835;BME280;35729;52.090;13.162;2023-06-22T03:04:19;101314.94;;;20.69;69.85
49835;BME280;35729;52.090;13.162;2023-06-22T03:06:50;101322.22;;;20.65;70.45
49835;BME280;35729;52.090;13.162;2023-06-22T03:09:20;101323.34;;;20.61;70.06
49835;BME280;35729;52.090;13.162;2023-06-22T03:11:48;101325.31;;;20.58;70.39
49835;BME280;35729;52.090;13.162;2023-06-22T03:14:17;101330.81;;;20.55;70.50
49835;BME280;35729;52.090;13.162;2023-06-22T03:16:45;101324.63;;;20.54;70.33
49835;BME280;35729;52.090;13.162;2023-06-22T03:19:14;101327.47;;;20.51;70.88
49835;BME280;35729;52.090;13.162;2023-06-22T03:21:42;101328.47;;;20.48;70.68
49835;BME280;35729;52.090;13.162;2023-06-22T03:24:13;101330.38;;;20.46;70.86
49835;BME280;35729;52.090;13.162;2023-06-22T03:26:41;101326.16;;;20.42;71.24
49835;BME280;35729;52.090;13.162;2023-06-22T03:29:12;101327.19;;;20.40;71.39
49835;BME280;35729;52.090;13.162;2023-06-22T03:31:41;101322.00;;;20.37;71.50
49835;BME280;35729;52.090;13.162;2023-06-22T03:34:09;101332.75;;;20.35;71.34
49835;BME280;35729;52.090;13.162;2023-06-22T03:36:38;101337.28;;;20.33;71.48
49835;BME280;35729;52.090;13.162;2023-06-22T03:39:06;101331.13;;;20.32;72.19
49835;BME280;35729;52.090;13.162;2023-06-22T03:41:37;101332.91;;;20.32;72.13
49835;BME280;35729;52.090;13.162;2023-06-22T03:44:06;101327.66;;;20.30;71.87
49835;BME280;35729;52.090;13.162;2023-06-22T03:46:37;101341.00;;;20.30;72.36
49835;BME280;35729;52.090;13.162;2023-06-22T03:49:06;101343.66;;;20.30;72.07
49835;BME280;35729;52.090;13.162;2023-06-22T03:51:35;101348.03;;;20.31;72.36
49835;BME280;35729;52.090;13.162;2023-06-22T03:54:04;101345.38;;;20.31;72.67
49835;BME280;35729;52.090;13.162;2023-06-22T03:56:32;101339.97;;;20.33;72.82
49835;BME280;35729;52.090;13.162;2023-06-22T03:59:03;101335.41;;;20.35;72.81
49835;BME280;35729;52.090;13.162;2023-06-22T04:01:32;101330.84;;;20.37;72.70
49835;BME280;35729;52.090;13.162;2023-06-22T04:04:00;101331.63;;;20.39;72.97
49835;BME280;35729;52.090;13.162;2023-06-22T04:06:29;101340.44;;;20.41;72.72
49835;BME280;35729;52.090;13.162;2023-06-22T04:08:59;101347.47;;;20.42;73.17
49835;BME280;35729;52.090;13.162;2023-06-22T04:11:28;101343.78;;;20.45;73.26
49835;BME280;35729;52.090;13.162;2023-06-22T04:13:56;101347.22;;;20.47;73.49
49835;BME280;35729;52.090;13.162;2023-06-22T04:16:28;101353.25;;;20.50;73.32
49835;BME280;35729;52.090;13.162;2023-06-22T04:18:56;101357.53;;;20.53;73.60
49835;BME280;35729;52.090;13.162;2023-06-22T04:21:25;101362.72;;;20.56;73.70
49835;BME280;35729;52.090;13.162;2023-06-22T04:23:53;101368.72;;;20.60;73.68
49835;BME280;35729;52.090;13.162;2023-06-22T04:26:22;101374.75;;;20.63;73.65
49835;BME280;35729;52.090;13.162;2023-06-22T04:28:50;101385.19;;;20.68;73.37
49835;BME280;35729;52.090;13.162;2023-06-22T04:31:21;101382.38;;;20.71;73.65
49835;BME280;35729;52.090;13.162;2023-06-22T04:34:00;101384.88;;;20.74;74.09
49835;BME280;35729;52.090;13.162;2023-06-22T04:36:36;101379.38;;;20.77;74.02
49835;BME280;35729;52.090;13.162;2023-06-22T04:39:06;101386.34;;;20.80;73.88
49835;BME280;35729;52.090;13.162;2023-06-22T04:41:35;101387.91;;;20.84;74.10
49835;BME280;35729;52.090;13.162;2023-06-22T04:44:09;101390.31;;;20.89;73.74
49835;BME280;35729;52.090;13.162;2023-06-22T04:46:39;101389.28;;;20.91;74.23
49835;BME280;35729;52.090;13.162;2023-06-22T04:49:10;101386.38;;;20.96;74.05
49835;BME280;35729;52.090;13.162;2023-06-22T04:51:42;101389.63;;;21.01;74.26
49835;BME280;35729;52.090;13.162;2023-06-22T04:54:10;101377.94;;;21.04;74.25
49835;BME280;35729;52.090;13.162;2023-06-22T04:56:39;101376.91;;;21.06;74.38
49835;BME280;35729;52.090;13.162;2023-06-22T04:59:08;101377.50;;;21.11;73.89
49835;BME280;35729;52.090;13.162;2023-06-22T05:01:38;101377.16;;;21.18;73.83
49835;BME280;35729;52.090;13.162;2023-06-22T05:04:06;101383.09;;;21.23;73.92
49835;BME280;35729;52.090;13.162;2023-06-22T05:06:38;101378.44;;;21.26;73.86
49835;BME280;35729;52.090;13.162;2023-06-22T05:09:06;101387.06;;;21.31;74.12
49835;BME280;35729;52.090;13.162;2023-06-22T05:11:35;101385.91;;;21.36;74.22
49835;BME280;35729;52.090;13.162;2023-06-22T05:14:03;101386.59;;;21.39;74.13
49835;BME280;35729;52.090;13.162;2023-06-22T05:16:33;101382.75;;;21.45;73.71
49835;BME280;35729;52.090;13.162;2023-06-22T05:19:01;101379.78;;;21.49;73.55
49835;BME280;35729;52.090;13.162;2023-06-22T05:21:30;101378.78;;;21.52;73.80
49835;BME280;35729;52.090;13.162;2023-06-22T05:24:02;101378.63;;;21.55;73.73
49835;BME280;35729;52.090;13.162;2023-06-22T05:26:31;101381.97;;;21.59;73.29
49835;BME280;35729;52.090;13.162;2023-06-22T05:29:01;101371.09;;;21.62;73.71
49835;BME280;35729;52.090;13.162;2023-06-22T05:31:30;101377.91;;;21.68;73.42
49835;BME280;35729;52.090;13.162;2023-06-22T05:33:58;101375.63;;;21.76;73.49
49835;BME280;35729;52.090;13.162;2023-06-22T05:36:28;101377.09;;;21.82;73.42
49835;BME280;35729;52.090;13.162;2023-06-22T05:38:56;101373.19;;;21.87;73.03
49835;BME280;35729;52.090;13.162;2023-06-22T05:41:28;101364.06;;;21.91;73.22
49835;BME280;35729;52.090;13.162;2023-06-22T05:43:56;101372.66;;;21.96;73.17
49835;BME280;35729;52.090;13.162;2023-06-22T05:46:25;101386.66;;;22.00;72.87
49835;BME280;35729;52.090;13.162;2023-06-22T05:48:53;101390.91;;;22.04;73.10
49835;BME280;35729;52.090;13.162;2023-06-22T05:51:21;101384.31;;;22.10;73.16
49835;BME280;35729;52.090;13.162;2023-06-22T05:53:50;101383.00;;;22.17;72.61
49835;BME280;35729;52.090;13.162;2023-06-22T05:56:19;101380.63;;;22.27;72.83
49835;BME280;35729;52.090;13.162;2023-06-22T05:58:50;101384.38;;;22.39;72.28
49835;BME280;35729;52.090;13.162;2023-06-22T06:01:18;101379.34;;;22.49;72.23
49835;BME280;35729;52.090;13.162;2023-06-22T06:03:47;101386.97;;;22.55;71.96
49835;BME280;35729;52.090;13.162;2023-06-22T06:06:15;101393.84;;;22.59;72.05
49835;BME280;35729;52.090;13.162;2023-06-22T06:08:45;101392.78;;;22.61;71.94
49835;BME280;35729;52.090;13.162;2023-06-22T06:11:21;101380.19;;;22.64;72.33
49835;BME280;35729;52.090;13.162;2023-06-22T06:13:52;101370.25;;;22.66;72.27
49835;BME280;35729;52.090;13.162;2023-06-22T06:16:21;101371.00;;;22.68;72.56
49835;BME280;35729;52.090;13.162;2023-06-22T06:18:50;101363.84;;;22.68;72.49
49835;BME280;35729;52.090;13.162;2023-06-22T06:21:20;101367.19;;;22.72;72.65
49835;BME280;35729;52.090;13.162;2023-06-22T06:23:48;101365.28;;;22.74;72.71
49835;BME280;35729;52.090;13.162;2023-06-22T06:26:18;101368.69;;;22.76;72.29
49835;BME280;35729;52.090;13.162;2023-06-22T06:28:56;101352.47;;;22.79;72.39
49835;BME280;35729;52.090;13.162;2023-06-22T06:31:25;101354.75;;;22.85;72.66
49835;BME280;35729;52.090;13.162;2023-06-22T06:33:55;101355.31;;;22.90;72.42
49835;BME280;35729;52.090;13.162;2023-06-22T06:36:23;101351.47;;;22.94;72.07
49835;BME280;35729;52.090;13.162;2023-06-22T06:38:52;101348.63;;;22.98;71.86
49835;BME280;35729;52.090;13.162;2023-06-22T06:41:20;101350.03;;;23.03;72.04
49835;BME280;35729;52.090;13.162;2023-06-22T06:43:49;101342.44;;;23.10;71.85
49835;BME280;35729;52.090;13.162;2023-06-22T06:46:20;101345.75;;;23.15;71.77
49835;BME280;35729;52.090;13.162;2023-06-22T06:48:49;101338.34;;;23.19;71.97
49835;BME280;35729;52.090;13.162;2023-06-22T06:51:17;101337.28;;;23.21;71.67
49835;BME280;35729;52.090;13.162;2023-06-22T06:53:45;101343.84;;;23.30;71.46
49835;BME280;35729;52.090;13.162;2023-06-22T06:56:14;101347.66;;;23.40;70.83
49835;BME280;35729;52.090;13.162;2023-06-22T06:58:42;101344.91;;;23.55;70.55
49835;BME280;35729;52.090;13.162;2023-06-22T07:01:11;101341.41;;;23.67;70.03
49835;BME280;35729;52.090;13.162;2023-06-22T07:03:42;101340.75;;;23.77;69.41
49835;BME280;35729;52.090;13.162;2023-06-22T07:06:11;101327.72;;;23.85;68.94
49835;BME280;35729;52.090;13.162;2023-06-22T07:08:39;101326.34;;;23.92;68.91
49835;BME280;35729;52.090;13.162;2023-06-22T07:11:08;101323.13;;;24.00;68.26
49835;BME280;35729;52.090;13.162;2023-06-22T07:13:36;101326.13;;;24.08;67.83
49835;BME280;35729;52.090;13.162;2023-06-22T07:16:05;101337.09;;;24.18;67.54
49835;BME280;35729;52.090;13.162;2023-06-22T07:18:33;101331.19;;;24.26;67.24
49835;BME280;35729;52.090;13.162;2023-06-22T07:21:04;101328.78;;;24.34;66.56
49835;BME280;35729;52.090;13.162;2023-06-22T07:23:33;101321.09;;;24.42;66.20
49835;BME280;35729;52.090;13.162;2023-06-22T07:26:01;101326.53;;;24.53;66.45
49835;BME280;35729;52.090;13.162;2023-06-22T07:28:31;101332.84;;;24.65;65.67
49835;BME280;35729;52.090;13.162;2023-06-22T07:31:02;101328.44;;;24.77;65.74
49835;BME280;35729;52.090;13.162;2023-06-22T07:33:31;101327.75;;;24.86;65.19
49835;BME280;35729;52.090;13.162;2023-06-22T07:35:59;101323.56;;;24.95;64.54
49835;BME280;35729;52.090;13.162;2023-06-22T07:38:35;101326.63;;;25.02;64.36
49835;BME280;35729;52.090;13.162;2023-06-22T07:41:04;101319.84;;;25.09;63.66
49835;BME280;35729;52.090;13.162;2023-06-22T07:43:32;101327.44;;;25.15;62.94
49835;BME280;35729;52.090;13.162;2023-06-22T07:46:02;101322.81;;;25.17;62.59
49835;BME280;35729;52.090;13.162;2023-06-22T07:48:31;101323.66;;;25.18;62.77
49835;BME280;35729;52.090;13.162;2023-06-22T07:50:59;101325.28;;;25.20;62.50
49835;BME280;35729;52.090;13.162;2023-06-22T07:53:27;101318.06;;;25.21;62.58
49835;BME280;35729;52.090;13.162;2023-06-22T07:55:59;101316.25;;;25.21;62.42
49835;BME280;35729;52.090;13.162;2023-06-22T07:58:32;101320.66;;;25.23;62.36
49835;BME280;35729;52.090;13.162;2023-06-22T08:01:01;101325.91;;;25.24;62.45
49835;BME280;35729;52.090;13.162;2023-06-22T08:03:29;101323.94;;;25.26;62.35
49835;BME280;35729;52.090;13.162;2023-06-22T08:05:58;101320.28;;;25.27;62.87
49835;BME280;35729;52.090;13.162;2023-06-22T08:08:26;101322.88;;;25.29;62.29
49835;BME280;35729;52.090;13.162;2023-06-22T08:10:55;101334.34;;;25.31;62.61
49835;BME280;35729;52.090;13.162;2023-06-22T08:13:26;101330.28;;;25.38;62.54
49835;BME280;35729;52.090;13.162;2023-06-22T08:15:54;101333.34;;;25.45;61.97
49835;BME280;35729;52.090;13.162;2023-06-22T08:18:23;101328.34;;;25.51;62.08
49835;BME280;35729;52.090;13.162;2023-06-22T08:20:52;101326.06;;;25.58;61.11
49835;BME280;35729;52.090;13.162;2023-06-22T08:23:20;101324.72;;;25.64;61.31
49835;BME280;35729;52.090;13.162;2023-06-22T08:25:49;101332.09;;;25.73;60.47
49835;BME280;35729;52.090;13.162;2023-06-22T08:28:17;101327.22;;;25.78;60.45
49835;BME280;35729;52.090;13.162;2023-06-22T08:30:48;101323.19;;;25.84;60.49
49835;BME280;35729;52.090;13.162;2023-06-22T08:33:17;101329.06;;;25.89;60.20
49835;BME280;35729;52.090;13.162;2023-06-22T08:35:49;101315.28;;;25.94;59.83
49835;BME280;35729;52.090;13.162;2023-06-22T08:38:17;101324.47;;;26.02;59.86
49835;BME280;35729;52.090;13.162;2023-06-22T08:40:46;101322.91;;;26.11;59.62
49835;BME280;35729;52.090;13.162;2023-06-22T08:43:14;101325.75;;;26.21;59.28
49835;BME280;35729;52.090;13.162;2023-06-22T08:45:43;101326.84;;;26.30;58.70
49835;BME280;35729;52.090;13.162;2023-06-22T08:48:14;101327.91;;;26.39;58.87
49835;BME280;35729;52.090;13.162;2023-06-22T08:50:42;101336.25;;;26.47;58.15
49835;BME280;35729;52.090;13.162;2023-06-22T08:53:11;101332.94;;;26.55;57.70
49835;BME280;35729;52.090;13.162;2023-06-22T08:55:39;101332.19;;;26.64;57.95
49835;BME280;35729;52.090;13.162;2023-06-22T08:58:08;101324.34;;;26.72;57.68
49835;BME280;35729;52.090;13.162;2023-06-22T09:00:36;101309.47;;;26.79;57.33
49835;BME280;35729;52.090;13.162;2023-06-22T09:03:05;101315.31;;;26.85;56.73
49835;BME280;35729;52.090;13.162;2023-06-22T09:05:37;101313.84;;;26.92;55.64
49835;BME280;35729;52.090;13.162;2023-06-22T09:08:05;101308.78;;;26.98;55.03
49835;BME280;35729;52.090;13.162;2023-06-22T09:10:34;101312.69;;;27.06;54.00
49835;BME280;35729;52.090;13.162;2023-06-22T09:13:02;101311.31;;;27.11;53.59
49835;BME280;35729;52.090;13.162;2023-06-22T09:15:31;101310.06;;;27.15;53.17
49835;BME280;35729;52.090;13.162;2023-06-22T09:18:00;101316.78;;;27.21;52.36
49835;BME280;35729;52.090;13.162;2023-06-22T09:20:28;101311.59;;;27.29;52.94
49835;BME280;35729;52.090;13.162;2023-06-22T09:23:00;101312.06;;;27.35;52.99
49835;BME280;35729;52.090;13.162;2023-06-22T09:25:28;101307.06;;;27.41;53.41
49835;BME280;35729;52.090;13.162;2023-06-22T09:27:57;101304.09;;;27.44;53.06
49835;BME280;35729;52.090;13.162;2023-06-22T09:30:25;101298.06;;;27.52;53.04
49835;BME280;35729;52.090;13.162;2023-06-22T09:32:54;101296.69;;;27.58;52.56
49835;BME280;35729;52.090;13.162;2023-06-22T09:35:22;101291.63;;;27.64;51.73
49835;BME280;35729;52.090;13.162;2023-06-22T09:37:51;101289.25;;;27.71;51.44
49835;BME280;35729;52.090;13.162;2023-06-22T09:40:22;101287.88;;;27.77;51.72
49835;BME280;35729;52.090;13.162;2023-06-22T09:42:50;101283.25;;;27.89;51.26
49835;BME280;35729;52.090;13.162;2023-06-22T09:45:19;101287.13;;;27.96;50.99
49835;BME280;35729;52.090;13.162;2023-06-22T09:47:47;101285.66;;;28.03;51.33
49835;BME280;35729;52.090;13.162;2023-06-22T09:50:16;101276.16;;;28.09;51.04
49835;BME280;35729;52.090;13.162;2023-06-22T09:52:44;101282.97;;;28.13;50.78
49835;BME280;35729;52.090;13.162;2023-06-22T09:55:16;101283.44;;;28.18;50.45
49835;BME280;35729;52.090;13.162;2023-06-22T09:57:47;101282.19;;;28.22;50.09
49835;BME280;35729;52.090;13.162;2023-06-22T10:00:17;101281.06;;;28.25;50.44
49835;BME280;35729;52.090;13.162;2023-06-22T10:02:47;101278.94;;;28.28;50.45
49835;BME280;35729;52.090;13.162;2023-06-22T10:05:16;101279.09;;;28.37;49.85
49835;BME280;35729;52.090;13.162;2023-06-22T10:07:44;101283.09;;;28.42;49.74
49835;BME280;35729;52.090;13.162;2023-06-22T10:10:13;101278.72;;;28.51;49.60
49835;BME280;35729;52.090;13.162;2023-06-22T10:12:54;101282.56;;;28.58;48.54
49835;BME280;35729;52.090;13.162;2023-06-22T10:15:23;101282.88;;;28.65;48.96
49835;BME280;35729;52.090;13.162;2023-06-22T10:17:52;101285.56;;;28.65;48.38
49835;BME280;35729;52.090;13.162;2023-06-22T10:20:20;101273.75;;;28.66;48.15
49835;BME280;35729;52.090;13.162;2023-06-22T10:22:49;101281.03;;;28.66;48.26
49835;BME280;35729;52.090;13.162;2023-06-22T10:25:24;101268.38;;;28.66;48.21
49835;BME280;35729;52.090;13.162;2023-06-22T10:27:55;101262.28;;;28.64;47.99
49835;BME280;35729;52.090;13.162;2023-06-22T10:30:24;101252.16;;;28.66;47.83
49835;BME280;35729;52.090;13.162;2023-06-22T10:32:54;101252.91;;;28.68;47.58
49835;BME280;35729;52.090;13.162;2023-06-22T10:35:23;101254.34;;;28.72;47.67
49835;BME280;35729;52.090;13.162;2023-06-22T10:37:52;101248.69;;;28.75;47.87
49835;BME280;35729;52.090;13.162;2023-06-22T10:40:21;101244.44;;;28.83;47.09
49835;BME280;35729;52.090;13.162;2023-06-22T10:42:50;101236.47;;;28.91;47.15
49835;BME280;35729;52.090;13.162;2023-06-22T10:45:21;101241.00;;;29.00;46.56
49835;BME280;35729;52.090;13.162;2023-06-22T10:47:49;101239.19;;;29.11;46.32
49835;BME280;35729;52.090;13.162;2023-06-22T10:50:18;101234.88;;;29.18;46.13
49835;BME280;35729;52.090;13.162;2023-06-22T10:52:49;101236.75;;;29.27;46.04
49835;BME280;35729;52.090;13.162;2023-06-22T10:55:18;101237.31;;;29.40;45.76
49835;BME280;35729;52.090;13.162;2023-06-22T10:57:46;101231.88;;;29.50;45.19
49835;BME280;35729;52.090;13.162;2023-06-22T11:00:16;101231.88;;;29.60;45.03
49835;BME280;35729;52.090;13.162;2023-06-22T11:02:47;101236.13;;;29.72;44.16
49835;BME280;35729;52.090;13.162;2023-06-22T11:05:16;101217.44;;;29.79;44.35
49835;BME280;35729;52.090;13.162;2023-06-22T11:07:44;101208.56;;;29.87;43.82
49835;BME280;35729;52.090;13.162;2023-06-22T11:10:15;101209.84;;;29.93;43.67
49835;BME280;35729;52.090;13.162;2023-06-22T11:12:43;101207.56;;;29.98;43.71
49835;BME280;35729;52.090;13.162;2023-06-22T11:15:11;101211.53;;;30.03;43.52
49835;BME280;35729;52.090;13.162;2023-06-22T11:17:40;101209.22;;;30.09;43.22
49835;BME280;35729;52.090;13.162;2023-06-22T11:20:11;101199.25;;;30.09;42.55
49835;BME280;35729;52.090;13.162;2023-06-22T11:22:40;101199.94;;;30.11;42.76
49835;BME280;35729;52.090;13.162;2023-06-22T11:25:09;101200.66;;;30.13;42.39
49835;BME280;35729;52.090;13.162;2023-06-22T11:27:39;101203.03;;;30.16;41.84
49835;BME280;35729;52.090;13.162;2023-06-22T11:30:08;101190.78;;;30.22;42.13
49835;BME280;35729;52.090;13.162;2023-06-22T11:32:37;101191.03;;;30.29;41.63
49835;BME280;35729;52.090;13.162;2023-06-22T11:35:06;101190.72;;;30.32;41.29
49835;BME280;35729;52.090;13.162;2023-06-22T11:37:37;101186.72;;;30.36;40.78
49835;BME280;35729;52.090;13.162;2023-06-22T11:40:07;101179.13;;;30.39;41.04
49835;BME280;35729;52.090;13.162;2023-06-22T11:42:36;101182.38;;;30.43;40.90
49835;BME280;35729;52.090;13.162;2023-06-22T11:45:06;101180.78;;;30.50;40.88
49835;BME280;35729;52.090;13.162;2023-06-22T11:47:35;101181.44;;;30.62;40.49
49835;BME280;35729;52.090;13.162;2023-06-22T11:50:06;101185.28;;;30.78;40.14
49835;BME280;35729;52.090;13.162;2023-06-22T11:52:37;101178.00;;;30.96;39.81
49835;BME280;35729;52.090;13.162;2023-06-22T11:55:07;101177.44;;;31.11;39.41
49835;BME280;35729;52.090;13.162;2023-06-22T11:57:36;101169.06;;;31.22;39.01
49835;BME280;35729;52.090;13.162;2023-06-22T12:00:13;101170.00;;;31.39;38.46
49835;BME280;35729;52.090;13.162;2023-06-22T12:02:44;101160.97;;;31.57;38.44
49835;BME280;35729;52.090;13.162;2023-06-22T12:05:13;101165.59;;;31.64;38.25
49835;BME280;35729;52.090;13.162;2023-06-22T12:07:44;101163.41;;;31.68;37.42
49835;BME280;35729;52.090;13.162;2023-06-22T12:10:13;101159.22;;;31.74;37.78
49835;BME280;35729;52.090;13.162;2023-06-22T12:12:41;101164.00;;;31.80;37.07
49835;BME280;35729;52.090;13.162;2023-06-22T12:15:10;101153.88;;;31.90;37.10
49835;BME280;35729;52.090;13.162;2023-06-22T12:17:39;101153.56;;;32.02;36.92
49835;BME280;35729;52.090;13.162;2023-06-22T12:20:09;101139.88;;;32.11;36.74
49835;BME280;35729;52.090;13.162;2023-06-22T12:22:37;101138.53;;;32.24;36.11
49835;BME280;35729;52.090;13.162;2023-06-22T12:25:09;101132.63;;;32.28;34.96
49835;BME280;35729;52.090;13.162;2023-06-22T12:27:37;101129.06;;;32.28;35.42
49835;BME280;35729;52.090;13.162;2023-06-22T12:30:08;101135.69;;;32.33;35.39
49835;BME280;35729;52.090;13.162;2023-06-22T12:32:36;101138.94;;;32.45;35.55
49835;BME280;35729;52.090;13.162;2023-06-22T12:35:06;101128.22;;;32.60;35.57
49835;BME280;35729;52.090;13.162;2023-06-22T12:37:39;101127.25;;;32.78;34.84
49835;BME280;35729;52.090;13.162;2023-06-22T12:40:11;101129.63;;;32.89;33.45
49835;BME280;35729;52.090;13.162;2023-06-22T12:42:40;101120.47;;;32.99;33.94
49835;BME280;35729;52.090;13.162;2023-06-22T12:45:09;101123.66;;;33.10;34.20
49835;BME280;35729;52.090;13.162;2023-06-22T12:47:38;101113.59;;;33.19;33.32
49835;BME280;35729;52.090;13.162;2023-06-22T12:50:07;101115.31;;;33.20;33.15
49835;BME280;35729;52.090;13.162;2023-06-22T12:52:37;101106.78;;;33.23;32.92